Mamaroneck, New York
Current Conditions -  °F | °C
As of 2:56 PM on Tuesday 21 Oct 2014 (Local Time) from KHPN Reporting Station
Broken Clouds Broken Clouds  
Wind Chill: 62°   Ceiling: 4800
Heat Index: 62°   Visibility: 10mi
Dew Point: 47°   Wind: 8mph
Humidity: 58%   Direction: 120°ESE
Pressure: 29.85"   Gusts: NA
Location:  40.95°N, 73.73°W
Report Text: KHPN 211856Z 12007KT 10SM SCT037 BKN048 17/08 A2985 RMK AO2 SLP107 T01670083
Loading
Personal Weather Stations






























Interactive Weather Map
Tropical Storm Tracking
New forecast layout! Learn more

10-Day Weather Forecast

Advertisements
Track Severe Weather on mobile